createdAt,value
2018-07-13T00:01:02.726Z,71.62
2018-07-13T00:03:32.081Z,72.82
2018-07-13T00:06:01.210Z,71.83
2018-07-13T00:08:30.923Z,71.40
2018-07-13T00:11:01.066Z,71.63
2018-07-13T00:13:30.198Z,71.43
2018-07-13T00:16:01.618Z,71.98
2018-07-13T00:18:30.985Z,70.97
2018-07-13T00:21:00.190Z,71.67
2018-07-13T00:23:31.472Z,72.20
2018-07-13T00:26:00.605Z,71.17
2018-07-13T00:28:29.733Z,71.71
2018-07-13T00:30:58.869Z,70.98
2018-07-13T00:33:28.033Z,72.99
2018-07-13T00:35:57.140Z,72.03
2018-07-13T00:38:26.289Z,72.57
2018-07-13T00:40:57.405Z,72.62
2018-07-13T00:43:26.529Z,71.41
2018-07-13T00:45:55.667Z,70.40
2018-07-13T00:48:24.793Z,72.67
2018-07-13T00:50:53.899Z,71.76
2018-07-13T00:53:24.077Z,71.68
2018-07-13T00:55:53.216Z,71.71
2018-07-13T00:58:22.366Z,72.74
2018-07-13T01:00:51.498Z,72.83
2018-07-13T01:03:20.654Z,71.53
2018-07-13T01:05:49.766Z,72.39
2018-07-13T01:08:18.938Z,73.60
2018-07-13T01:10:48.296Z,73.79
2018-07-13T01:13:17.626Z,73.21
2018-07-13T01:15:46.808Z,73.84
2018-07-13T01:18:15.914Z,73.63
2018-07-13T01:20:45.140Z,73.00
2018-07-13T01:23:14.269Z,73.42
2018-07-13T01:25:43.406Z,73.16
2018-07-13T01:28:12.614Z,74.62
2018-07-13T01:30:41.814Z,74.73
2018-07-13T01:33:10.961Z,73.73
2018-07-13T01:35:40.161Z,74.96
2018-07-13T01:38:09.301Z,72.42
2018-07-13T01:40:38.417Z,72.74
2018-07-13T01:43:11.177Z,72.69
2018-07-13T01:45:40.290Z,72.59
2018-07-13T01:48:09.417Z,71.88
2018-07-13T01:50:38.553Z,73.64
2018-07-13T01:53:07.674Z,73.66
2018-07-13T01:55:36.823Z,72.87
2018-07-13T01:58:05.901Z,71.99
2018-07-13T02:00:35.017Z,73.94
2018-07-13T02:03:04.125Z,72.96
2018-07-13T02:05:33.277Z,73.04
2018-07-13T02:08:02.418Z,71.82
2018-07-13T02:10:31.521Z,72.82
2018-07-13T02:13:00.667Z,72.51
2018-07-13T02:15:33.641Z,71.65
2018-07-13T02:18:02.810Z,72.68
2018-07-13T02:20:31.910Z,72.29
2018-07-13T02:23:01.017Z,72.67
2018-07-13T02:25:30.146Z,72.61
2018-07-13T02:27:59.257Z,71.97
2018-07-13T02:30:28.360Z,70.78
2018-07-13T02:32:57.525Z,72.43
2018-07-13T02:35:27.290Z,72.38
2018-07-13T02:37:56.404Z,71.90
2018-07-13T02:40:25.499Z,71.50
2018-07-13T02:42:54.633Z,70.70
2018-07-13T02:45:23.749Z,70.76
2018-07-13T02:47:52.937Z,72.38
2018-07-13T02:50:28.214Z,71.23
2018-07-13T02:52:57.317Z,71.60
2018-07-13T02:55:26.441Z,72.92
2018-07-13T02:57:55.578Z,71.96
2018-07-13T03:00:24.673Z,72.01
2018-07-13T03:02:53.781Z,70.53
2018-07-13T03:05:22.890Z,71.16
2018-07-13T03:07:52.081Z,71.85
2018-07-13T03:10:21.193Z,71.37
2018-07-13T03:12:50.281Z,69.66
2018-07-13T03:15:19.405Z,71.28
2018-07-13T03:17:48.517Z,68.96
2018-07-13T03:20:17.750Z,70.44
2018-07-13T03:22:47.898Z,71.14
2018-07-13T03:25:17.077Z,70.60
2018-07-13T03:27:46.202Z,69.99
2018-07-13T03:30:15.338Z,69.85
2018-07-13T03:32:44.462Z,70.38
2018-07-13T03:35:13.630Z,70.70
2018-07-13T03:37:42.761Z,69.29
2018-07-13T03:40:11.885Z,69.99
2018-07-13T03:42:41.073Z,69.57
2018-07-13T03:45:10.178Z,69.88
2018-07-13T03:47:39.317Z,70.35
2018-07-13T03:50:08.461Z,69.70
2018-07-13T03:52:37.610Z,69.32
2018-07-13T03:55:06.714Z,69.51
2018-07-13T03:57:35.829Z,69.67
2018-07-13T04:00:05.042Z,69.49
2018-07-13T04:02:34.252Z,68.43
2018-07-13T04:05:03.450Z,68.83
2018-07-13T04:07:32.541Z,69.46
2018-07-13T04:10:05.459Z,69.67
2018-07-13T04:12:34.650Z,69.62
2018-07-13T04:15:03.787Z,69.73
2018-07-13T04:17:32.934Z,69.66
2018-07-13T04:20:03.106Z,70.14
2018-07-13T04:22:32.249Z,68.30
2018-07-13T04:25:01.410Z,68.70
2018-07-13T04:27:31.214Z,69.42
2018-07-13T04:30:00.394Z,69.53
2018-07-13T04:32:29.490Z,68.37
2018-07-13T04:34:58.653Z,70.02
2018-07-13T04:37:27.841Z,68.80
2018-07-13T04:39:56.969Z,69.30
2018-07-13T04:42:26.151Z,69.44
2018-07-13T04:44:55.317Z,67.99
2018-07-13T04:47:24.465Z,69.11
2018-07-13T04:49:53.626Z,69.73
2018-07-13T04:52:22.799Z,67.69
2018-07-13T04:54:52.225Z,69.10
2018-07-13T04:57:21.536Z,67.67
2018-07-13T04:59:50.722Z,68.75
2018-07-13T05:02:19.905Z,68.65
2018-07-13T05:04:49.147Z,68.85
2018-07-13T05:07:18.301Z,69.68
2018-07-13T05:09:47.483Z,69.59
2018-07-13T05:12:16.745Z,71.37
2018-07-13T05:14:45.861Z,70.44
2018-07-13T05:17:14.986Z,68.94
2018-07-13T05:19:44.090Z,69.50
2018-07-13T05:22:13.261Z,70.21
2018-07-13T05:24:42.412Z,69.45
2018-07-13T05:27:11.658Z,69.31
2018-07-13T05:29:40.771Z,68.51
2018-07-13T05:32:09.954Z,68.02
2018-07-13T05:34:39.286Z,68.20
2018-07-13T05:37:08.585Z,68.67
2018-07-13T05:39:37.749Z,68.11
2018-07-13T05:42:07.109Z,68.35
2018-07-13T05:44:36.265Z,68.57
2018-07-13T05:47:05.435Z,68.27
2018-07-13T05:49:34.642Z,68.83
2018-07-13T05:52:03.925Z,66.69
2018-07-13T05:54:33.070Z,66.79
2018-07-13T05:57:02.234Z,68.31
2018-07-13T05:59:31.421Z,69.13
2018-07-13T06:02:00.649Z,69.43
2018-07-13T06:04:29.840Z,70.61
2018-07-13T06:06:58.989Z,70.46
2018-07-13T06:09:28.192Z,71.17
2018-07-13T06:11:59.677Z,70.42
2018-07-13T06:14:28.858Z,69.79
2018-07-13T06:16:57.953Z,70.46
2018-07-13T06:19:27.093Z,69.88
2018-07-13T06:21:57.333Z,69.21
2018-07-13T06:24:26.507Z,68.39
2018-07-13T06:26:55.650Z,68.23
2018-07-13T06:29:24.766Z,66.92
2018-07-13T06:31:53.889Z,67.31
2018-07-13T06:34:23.051Z,67.57
2018-07-13T06:36:52.197Z,67.61
2018-07-13T06:39:21.360Z,68.35
2018-07-13T06:41:50.695Z,68.75
2018-07-13T06:44:19.838Z,67.84
2018-07-13T06:46:48.956Z,66.43
2018-07-13T06:49:18.141Z,68.28
2018-07-13T06:51:47.340Z,67.49
2018-07-13T06:54:16.676Z,67.39
2018-07-13T06:56:45.954Z,66.72
2018-07-13T06:59:16.337Z,65.38
2018-07-13T07:01:45.934Z,64.87
2018-07-13T07:04:36.757Z,65.36
2018-07-13T07:07:08.945Z,62.28
2018-07-13T07:09:38.666Z,66.90
2018-07-13T07:13:16.043Z,67.11
2018-07-13T07:15:44.909Z,62.12
2018-07-13T07:18:14.049Z,64.36
2018-07-13T07:20:43.725Z,64.65
2018-07-13T07:23:13.561Z,63.57
2018-07-13T07:25:42.726Z,62.61
2018-07-13T07:28:11.870Z,61.69
2018-07-13T07:30:41.127Z,61.81
2018-07-13T07:33:13.493Z,62.22
2018-07-13T07:35:42.645Z,62.42
2018-07-13T07:38:11.765Z,62.61
2018-07-13T07:40:40.946Z,61.86
2018-07-13T07:43:10.138Z,62.05
2018-07-13T07:45:42.692Z,61.88
2018-07-13T07:48:11.937Z,63.05
2018-07-13T07:50:41.197Z,60.81
2018-07-13T07:53:10.325Z,61.57
2018-07-13T07:55:39.724Z,58.27
2018-07-13T07:58:08.881Z,58.17
2018-07-13T08:00:38.009Z,56.71
2018-07-13T08:03:07.797Z,56.74
2018-07-13T08:05:36.921Z,55.66
2018-07-13T08:08:06.261Z,57.26
2018-07-13T08:10:35.379Z,57.56
2018-07-13T08:13:05.413Z,56.20
2018-07-13T08:15:34.577Z,56.64
2018-07-13T08:18:03.744Z,56.60
2018-07-13T08:20:35.027Z,58.15
2018-07-13T08:23:07.345Z,56.72
2018-07-13T08:25:36.954Z,56.46
2018-07-13T08:28:07.045Z,56.21
2018-07-13T08:30:41.685Z,57.36
2018-07-13T08:33:10.797Z,55.56
2018-07-13T08:35:39.973Z,54.74
2018-07-13T08:38:09.150Z,54.48
2018-07-13T08:40:46.797Z,54.02
2018-07-13T08:43:15.996Z,53.67
2018-07-13T08:45:45.188Z,56.40
2018-07-13T08:48:14.261Z,55.46
2018-07-13T08:50:43.411Z,54.54
2018-07-13T08:53:12.594Z,55.21
2018-07-13T08:55:41.765Z,53.06
2018-07-13T08:58:10.925Z,52.13
2018-07-13T09:00:40.194Z,49.93
2018-07-13T09:03:09.361Z,50.00
2018-07-13T09:05:38.529Z,47.76
2018-07-13T09:08:07.717Z,49.84
2018-07-13T09:10:36.853Z,50.62
2018-07-13T09:13:06.247Z,49.59
2018-07-13T09:15:35.365Z,51.55
2018-07-13T09:18:04.502Z,49.79
2018-07-13T09:20:33.654Z,48.09
2018-07-13T09:23:02.806Z,47.88
2018-07-13T09:25:31.974Z,48.26
2018-07-13T09:28:01.086Z,47.85
2018-07-13T09:30:30.261Z,47.81
2018-07-13T09:32:59.391Z,47.21
2018-07-13T09:35:28.583Z,47.00
2018-07-13T09:37:57.744Z,49.32
2018-07-13T09:40:26.897Z,49.60
2018-07-13T09:42:56.273Z,47.35
2018-07-13T09:45:25.405Z,48.00
2018-07-13T09:47:54.600Z,49.04
2018-07-13T09:50:23.750Z,48.49
2018-07-13T09:52:52.911Z,49.57
2018-07-13T09:55:22.046Z,48.58
2018-07-13T09:57:51.180Z,48.38
2018-07-13T10:00:20.293Z,48.80
2018-07-13T10:02:49.465Z,48.59
2018-07-13T10:05:18.611Z,46.82
2018-07-13T10:07:47.808Z,46.71
2018-07-13T10:10:16.974Z,46.04
2018-07-13T10:12:46.193Z,45.10
2018-07-13T10:15:15.349Z,46.91
2018-07-13T10:17:44.577Z,46.60
2018-07-13T10:20:13.730Z,45.34
2018-07-13T10:22:42.905Z,43.91
2018-07-13T10:25:12.075Z,45.34
2018-07-13T10:27:41.241Z,42.76
2018-07-13T10:30:12.170Z,41.84
2018-07-13T10:32:42.842Z,42.30
2018-07-13T10:35:13.110Z,39.92
2018-07-13T10:37:42.877Z,41.52
2018-07-13T10:40:15.705Z,40.02
2018-07-13T10:42:44.793Z,41.54
2018-07-13T10:45:13.941Z,40.00
2018-07-13T10:47:43.154Z,40.40
2018-07-13T10:50:12.233Z,40.77
2018-07-13T10:52:41.349Z,40.75
2018-07-13T10:55:10.460Z,39.54
2018-07-13T10:57:39.577Z,40.59
2018-07-13T11:00:08.711Z,40.79
2018-07-13T11:02:37.834Z,42.15
2018-07-13T11:05:06.929Z,42.18
2018-07-13T11:07:36.069Z,39.84
2018-07-13T11:10:05.709Z,40.03
2018-07-13T11:12:34.821Z,40.47
2018-07-13T11:15:03.977Z,42.33
2018-07-13T11:17:33.069Z,41.21
2018-07-13T11:20:02.219Z,42.15
2018-07-13T11:22:31.265Z,40.45
2018-07-13T11:25:00.389Z,39.44
2018-07-13T11:27:29.502Z,40.13
2018-07-13T11:29:58.605Z,39.58
2018-07-13T11:32:27.696Z,38.38
2018-07-13T11:34:56.938Z,38.58
2018-07-13T11:37:26.294Z,37.31
2018-07-13T11:39:55.325Z,37.78
2018-07-13T11:42:24.592Z,39.29
2018-07-13T11:44:53.694Z,39.08
2018-07-13T11:47:22.802Z,39.60
2018-07-13T11:49:51.989Z,37.56
2018-07-13T11:52:21.121Z,37.47
2018-07-13T11:54:50.234Z,37.09
2018-07-13T11:57:19.349Z,38.17
2018-07-13T11:59:48.482Z,37.80
2018-07-13T12:02:17.601Z,38.93
2018-07-13T12:04:46.714Z,37.39
2018-07-13T12:07:15.809Z,36.77
2018-07-13T12:09:44.934Z,36.34
2018-07-13T12:12:14.050Z,36.34
2018-07-13T12:14:43.158Z,36.53
2018-07-13T12:17:12.266Z,37.45
2018-07-13T12:19:41.395Z,37.45
2018-07-13T12:22:10.516Z,37.93
2018-07-13T12:24:39.637Z,37.18
2018-07-13T12:27:08.751Z,37.87
2018-07-13T12:29:37.925Z,37.13
2018-07-13T12:32:07.101Z,36.27
2018-07-13T12:34:37.301Z,37.70
2018-07-13T12:37:07.506Z,36.61
2018-07-13T12:39:36.668Z,36.21
2018-07-13T12:42:05.781Z,38.04
2018-07-13T12:44:34.873Z,37.03
2018-07-13T12:47:04.037Z,35.84
2018-07-13T12:49:33.169Z,36.65
2018-07-13T12:52:02.314Z,37.98
2018-07-13T12:54:31.454Z,37.24
2018-07-13T12:57:00.537Z,37.68
2018-07-13T12:59:29.682Z,37.02
2018-07-13T13:01:58.744Z,35.98
2018-07-13T13:04:27.856Z,36.58
2018-07-13T13:06:56.989Z,35.50
2018-07-13T13:09:26.145Z,37.33
2018-07-13T13:11:55.235Z,36.58
2018-07-13T13:14:24.373Z,37.62
2018-07-13T13:16:53.463Z,35.10
2018-07-13T13:19:22.565Z,34.53
2018-07-13T13:21:51.757Z,35.19
2018-07-13T13:24:20.786Z,35.52
2018-07-13T13:26:50.709Z,35.21
2018-07-13T13:29:19.837Z,34.44
2018-07-13T13:31:48.893Z,35.66
2018-07-13T13:34:17.981Z,34.27
2018-07-13T13:36:47.106Z,35.45
2018-07-13T13:39:16.299Z,35.55
2018-07-13T13:41:45.581Z,34.96
2018-07-13T13:44:14.692Z,34.92
2018-07-13T13:46:43.765Z,33.80
2018-07-13T13:49:12.889Z,33.97
2018-07-13T13:51:42.014Z,32.67
2018-07-13T13:54:11.114Z,33.43
2018-07-13T13:56:40.221Z,31.42
2018-07-13T13:59:09.347Z,31.74
2018-07-13T14:01:38.460Z,31.93
2018-07-13T14:04:07.573Z,32.81
2018-07-13T14:06:36.713Z,33.06
2018-07-13T14:09:07.831Z,31.59
2018-07-13T14:11:36.825Z,32.39
2018-07-13T14:14:05.972Z,32.58
2018-07-13T14:16:35.078Z,32.13
2018-07-13T14:19:04.173Z,32.17
2018-07-13T14:21:33.290Z,30.92
2018-07-13T14:24:02.434Z,31.26
2018-07-13T14:26:31.577Z,32.30
2018-07-13T14:29:01.798Z,31.79
2018-07-13T14:31:32.905Z,30.93
2018-07-13T14:34:02.002Z,32.78
2018-07-13T14:36:33.993Z,31.15
2018-07-13T14:39:03.230Z,31.76
2018-07-13T14:41:32.397Z,30.92
2018-07-13T14:44:01.542Z,32.19
2018-07-13T14:46:31.301Z,30.40
2018-07-13T14:49:00.509Z,31.86
2018-07-13T14:51:31.238Z,32.34
2018-07-13T14:54:00.569Z,31.79
2018-07-13T14:56:29.768Z,32.25
2018-07-13T14:58:58.887Z,31.90
2018-07-13T15:01:28.017Z,31.84
2018-07-13T15:03:57.157Z,31.17
2018-07-13T15:06:28.436Z,31.74
2018-07-13T15:09:00.893Z,31.22
2018-07-13T15:11:30.052Z,31.87
2018-07-13T15:13:59.298Z,30.49
2018-07-13T15:16:28.426Z,31.20
2018-07-13T15:18:57.985Z,29.67
2018-07-13T15:21:31.534Z,30.01
2018-07-13T15:24:00.754Z,29.41
2018-07-13T15:26:29.946Z,29.61
2018-07-13T15:28:59.038Z,29.19
2018-07-13T15:31:28.171Z,29.83
2018-07-13T15:33:57.285Z,29.22
2018-07-13T15:36:26.421Z,28.58
2018-07-13T15:38:55.565Z,30.83
2018-07-13T15:41:24.705Z,29.48
2018-07-13T15:43:53.813Z,29.41
2018-07-13T15:46:23.014Z,29.24
2018-07-13T15:48:52.250Z,29.67
2018-07-13T15:51:21.349Z,30.39
2018-07-13T15:53:51.545Z,31.02
2018-07-13T15:56:20.672Z,30.23
2018-07-13T15:58:49.901Z,31.46
2018-07-13T16:01:19.192Z,30.11
2018-07-13T16:03:50.333Z,30.28
2018-07-13T16:06:19.471Z,31.46
2018-07-13T16:08:51.862Z,30.52
2018-07-13T16:11:21.033Z,31.50
2018-07-13T16:13:50.317Z,32.10
2018-07-13T16:16:19.559Z,31.04
2018-07-13T16:18:49.586Z,31.39
2018-07-13T16:21:19.738Z,29.92
2018-07-13T16:23:49.834Z,30.29
2018-07-13T16:26:19.882Z,30.63
2018-07-13T16:28:49.133Z,30.16
2018-07-13T16:31:24.230Z,29.92
2018-07-13T16:34:06.541Z,30.66
2018-07-13T16:36:36.545Z,29.74
2018-07-13T16:39:18.109Z,31.06
2018-07-13T16:41:58.959Z,29.50
2018-07-13T16:44:29.142Z,29.89
2018-07-13T16:46:59.350Z,30.73
2018-07-13T16:49:28.482Z,30.28
2018-07-13T16:51:57.691Z,29.70
2018-07-13T16:54:26.754Z,29.99
2018-07-13T16:56:55.881Z,31.62
2018-07-13T16:59:25.040Z,30.42
2018-07-13T17:01:54.149Z,31.51
2018-07-13T17:04:23.261Z,31.55
2018-07-13T17:06:52.405Z,31.69
2018-07-13T17:09:21.510Z,32.25
2018-07-13T17:11:50.752Z,31.80
2018-07-13T17:14:19.841Z,31.69
2018-07-13T17:16:53.657Z,31.31
2018-07-13T17:19:22.813Z,32.46
2018-07-13T17:21:51.980Z,32.52
2018-07-13T17:24:21.085Z,31.88
2018-07-13T17:26:58.405Z,31.16
2018-07-13T17:29:28.541Z,31.89
2018-07-13T17:31:57.657Z,31.38
2018-07-13T17:34:26.740Z,30.17
2018-07-13T17:36:56.939Z,31.59
2018-07-13T17:39:27.134Z,32.46
2018-07-13T17:42:03.387Z,33.68
2018-07-13T17:44:32.609Z,34.54
2018-07-13T17:47:02.777Z,34.34
2018-07-13T17:49:31.993Z,34.82
2018-07-13T17:52:01.123Z,35.19
2018-07-13T17:54:30.333Z,35.62
2018-07-13T17:56:59.554Z,35.11
2018-07-13T17:59:28.719Z,36.31
2018-07-13T18:01:57.894Z,35.12
2018-07-13T18:04:27.029Z,35.42
2018-07-13T18:06:56.141Z,36.09
2018-07-13T18:09:25.747Z,36.87
2018-07-13T18:12:01.455Z,35.10
2018-07-13T18:14:30.585Z,35.43
2018-07-13T18:16:59.705Z,36.13
2018-07-13T18:19:28.845Z,37.30
2018-07-13T18:21:57.951Z,36.89
2018-07-13T18:24:27.109Z,38.02
2018-07-13T18:26:56.225Z,37.01
2018-07-13T18:29:31.754Z,37.41
2018-07-13T18:32:00.929Z,36.89
2018-07-13T18:34:48.776Z,38.31
2018-07-13T18:37:17.939Z,37.52
2018-07-13T18:39:47.079Z,37.21
2018-07-13T18:42:19.661Z,37.98
2018-07-13T18:44:48.885Z,38.08
2018-07-13T18:47:18.038Z,39.04
2018-07-13T18:49:47.195Z,38.35
2018-07-13T18:52:16.346Z,39.44
2018-07-13T18:54:45.463Z,39.41
2018-07-13T18:57:14.637Z,40.53
2018-07-13T18:59:43.730Z,39.93
2018-07-13T19:02:12.867Z,40.76
2018-07-13T19:04:41.999Z,40.69
2018-07-13T19:07:11.154Z,40.81
2018-07-13T19:09:40.288Z,41.48
2018-07-13T19:12:09.424Z,41.12
2018-07-13T19:14:52.059Z,41.89
2018-07-13T19:17:22.286Z,41.99
2018-07-13T19:19:51.390Z,42.64
2018-07-13T19:22:20.510Z,43.05
2018-07-13T19:25:01.050Z,43.15
2018-07-13T19:27:30.173Z,44.32
2018-07-13T19:30:01.366Z,44.87
2018-07-13T19:32:30.533Z,44.99
2018-07-13T19:35:00.701Z,44.36
2018-07-13T19:37:29.819Z,45.08
2018-07-13T19:39:59.025Z,46.14
2018-07-13T19:42:28.328Z,44.94
2018-07-13T19:44:57.321Z,45.67
2018-07-13T19:47:26.466Z,45.17
2018-07-13T19:49:55.602Z,46.40
2018-07-13T19:52:24.702Z,46.46
2018-07-13T19:54:53.832Z,46.19
2018-07-13T19:57:24.116Z,47.46
2018-07-13T19:59:54.433Z,47.16
2018-07-13T20:02:23.658Z,47.67
2018-07-13T20:05:02.674Z,48.45
2018-07-13T20:07:35.240Z,48.14
2018-07-13T20:10:04.570Z,48.45
2018-07-13T20:12:33.930Z,49.92
2018-07-13T20:15:05.185Z,50.19
2018-07-13T20:17:39.782Z,49.54
2018-07-13T20:20:09.597Z,49.71
2018-07-13T20:22:39.039Z,51.39
2018-07-13T20:25:08.553Z,52.13
2018-07-13T20:27:37.894Z,51.91
2018-07-13T20:30:07.564Z,51.13
2018-07-13T20:32:37.755Z,51.99
2018-07-13T20:35:06.898Z,51.99
2018-07-13T20:37:36.992Z,52.03
2018-07-13T20:40:07.651Z,52.22
2018-07-13T20:42:36.769Z,52.73
2018-07-13T20:45:05.906Z,53.81
2018-07-13T20:47:35.054Z,53.38
2018-07-13T20:50:04.165Z,53.50
2018-07-13T20:52:33.292Z,54.13
2018-07-13T20:55:02.486Z,53.53
2018-07-13T20:57:31.605Z,55.02
2018-07-13T21:00:00.870Z,55.41
2018-07-13T21:02:29.974Z,54.77
2018-07-13T21:04:59.081Z,54.88
2018-07-13T21:07:28.189Z,55.16
2018-07-13T21:09:57.318Z,54.62
2018-07-13T21:12:26.473Z,55.19
2018-07-13T21:14:55.673Z,53.90
2018-07-13T21:17:24.800Z,54.73
2018-07-13T21:19:53.895Z,55.26
2018-07-13T21:22:23.035Z,56.35
2018-07-13T21:24:52.324Z,55.49
2018-07-13T21:27:21.489Z,55.95
2018-07-13T21:29:50.582Z,55.91
2018-07-13T21:32:19.690Z,55.64
2018-07-13T21:34:48.798Z,57.00
2018-07-13T21:37:17.933Z,56.31
2018-07-13T21:39:47.035Z,57.12
2018-07-13T21:42:16.145Z,57.13
2018-07-13T21:44:45.245Z,57.07
2018-07-13T21:47:14.361Z,57.23
2018-07-13T21:49:43.468Z,57.66
2018-07-13T21:52:12.662Z,57.24
2018-07-13T21:54:41.696Z,56.85
2018-07-13T21:57:10.834Z,57.92
2018-07-13T21:59:40.110Z,57.09
2018-07-13T22:02:09.218Z,57.94
2018-07-13T22:04:38.317Z,57.48
2018-07-13T22:07:07.438Z,57.90
2018-07-13T22:09:36.532Z,57.64
2018-07-13T22:12:05.714Z,58.34
2018-07-13T22:14:34.837Z,58.50
2018-07-13T22:17:03.973Z,55.38
2018-07-13T22:19:34.120Z,57.57
2018-07-13T22:22:03.826Z,57.01
2018-07-13T22:24:33.002Z,55.95
2018-07-13T22:27:02.133Z,57.49
2018-07-13T22:29:31.849Z,58.27
2018-07-13T22:32:00.986Z,58.29
2018-07-13T22:34:30.128Z,57.17
2018-07-13T22:36:59.248Z,57.81
2018-07-13T22:39:28.340Z,57.04
2018-07-13T22:42:01.311Z,57.38
2018-07-13T22:44:30.424Z,57.02
2018-07-13T22:46:59.629Z,56.06
2018-07-13T22:49:28.738Z,56.79
2018-07-13T22:52:01.106Z,56.72
2018-07-13T22:54:30.228Z,57.22
2018-07-13T22:56:59.346Z,56.34
2018-07-13T22:59:32.001Z,56.44
2018-07-13T23:02:01.209Z,56.40
2018-07-13T23:04:34.399Z,56.24
2018-07-13T23:07:03.574Z,55.76
2018-07-13T23:09:32.694Z,54.83
2018-07-13T23:12:01.870Z,55.45
2018-07-13T23:14:30.997Z,55.31
2018-07-13T23:17:00.110Z,56.15
2018-07-13T23:19:30.164Z,54.96
2018-07-13T23:21:59.281Z,55.06
2018-07-13T23:24:28.400Z,55.90
2018-07-13T23:26:57.509Z,56.05
2018-07-13T23:29:28.664Z,55.16
2018-07-13T23:31:57.765Z,55.72
2018-07-13T23:34:26.913Z,55.59
2018-07-13T23:36:56.059Z,54.75
2018-07-13T23:39:25.152Z,55.63
2018-07-13T23:41:54.277Z,54.38
2018-07-13T23:44:23.361Z,55.16
2018-07-13T23:46:52.513Z,55.78
2018-07-13T23:49:21.621Z,55.80
2018-07-13T23:51:50.733Z,55.82
2018-07-13T23:54:19.830Z,55.74
2018-07-13T23:56:49.121Z,56.44
2018-07-13T23:59:18.250Z,55.78
